Terminal Aerodrome Forecast
Issued by NWS

Home | Current Version | Previous Version | Text Only | Print | Product List | Glossary On
Versions: 1 2 3 4 5 6 7 8 9 10 11 12 13 14 15 16 17 18 19 20 21
000
FTUS43 KIND 300520
TAFHUF
TAF
KHUF 300520Z 3006/0106 07010KT P6SM BKN120
     FM300900 09010KT P6SM VCSH OVC070
     FM301300 11013KT 4SM -SHRA BR OVC025
     FM301700 12013G20KT 3SM -RA VCTS OVC007CB
     FM010200 17005KT P6SM OVC015=

USA.gov is the U.S. government's official web portal to all federal, state and local government web resources and services.